createdAt,value
2022-10-31T00:01:29.101Z,147.83
2022-10-31T00:03:57.334Z,147.47
2022-10-31T00:06:25.778Z,147.50
2022-10-31T00:08:55.558Z,147.17
2022-10-31T00:11:24.018Z,147.47
2022-10-31T00:13:53.428Z,147.10
2022-10-31T00:16:23.789Z,147.33
2022-10-31T00:18:52.533Z,147.50
2022-10-31T00:21:20.719Z,147.00
2022-10-31T00:23:48.520Z,147.57
2022-10-31T00:26:16.795Z,147.63
2022-10-31T00:28:44.843Z,147.87
2022-10-31T00:31:15.096Z,147.50
2022-10-31T00:33:43.357Z,147.30
2022-10-31T00:36:14.587Z,147.60
2022-10-31T00:38:42.674Z,147.00
2022-10-31T00:41:10.977Z,147.20
2022-10-31T00:43:42.102Z,147.00
2022-10-31T00:46:10.413Z,147.17
2022-10-31T00:48:39.567Z,146.93
2022-10-31T00:51:07.863Z,147.33
2022-10-31T00:53:36.174Z,146.80
2022-10-31T00:56:04.318Z,147.40
2022-10-31T00:58:32.135Z,147.67
2022-10-31T01:01:00.081Z,146.80
2022-10-31T01:03:31.110Z,146.50
2022-10-31T01:06:02.858Z,147.40
2022-10-31T01:08:33.918Z,147.43
2022-10-31T01:11:03.946Z,147.10
2022-10-31T01:13:31.760Z,146.87
2022-10-31T01:16:00.555Z,146.97
2022-10-31T01:18:29.386Z,146.40
2022-10-31T01:21:03.288Z,147.20
2022-10-31T01:23:31.167Z,147.10
2022-10-31T01:26:08.315Z,147.00
2022-10-31T01:28:37.132Z,147.40
2022-10-31T01:31:07.481Z,147.40
2022-10-31T01:33:36.576Z,147.37
2022-10-31T01:36:14.538Z,147.27
2022-10-31T01:38:42.467Z,147.17
2022-10-31T01:41:11.730Z,147.03
2022-10-31T01:43:54.261Z,146.73
2022-10-31T01:46:24.671Z,147.60
2022-10-31T01:48:54.582Z,147.47
2022-10-31T01:51:28.421Z,146.67
2022-10-31T01:53:59.425Z,147.30
2022-10-31T01:56:28.048Z,147.43
2022-10-31T01:58:58.813Z,147.23
2022-10-31T02:01:27.515Z,146.70
2022-10-31T02:03:57.203Z,147.53
2022-10-31T02:06:34.929Z,146.67
2022-10-31T02:09:04.282Z,146.60
2022-10-31T02:11:33.494Z,146.83
2022-10-31T02:14:04.157Z,147.07
2022-10-31T02:16:31.985Z,146.73
2022-10-31T02:18:59.918Z,147.37
2022-10-31T02:21:39.563Z,146.77
2022-10-31T02:24:47.521Z,147.43
2022-10-31T02:27:46.416Z,146.57
2022-10-31T02:30:19.301Z,147.07
2022-10-31T02:33:14.342Z,146.33
2022-10-31T02:35:52.238Z,146.97
2022-10-31T02:38:44.837Z,147.10
2022-10-31T02:41:26.416Z,146.43
2022-10-31T02:44:02.309Z,146.53
2022-10-31T02:46:36.273Z,147.17
2022-10-31T02:49:12.143Z,146.63
2022-10-31T02:51:41.587Z,146.60
2022-10-31T02:54:19.776Z,147.30
2022-10-31T02:56:48.630Z,147.17
2022-10-31T02:59:17.983Z,146.93
2022-10-31T03:02:11.369Z,147.10
2022-10-31T03:04:59.885Z,147.10
2022-10-31T03:07:38.183Z,147.27
2022-10-31T03:10:16.376Z,147.47
2022-10-31T03:12:51.828Z,146.80
2022-10-31T03:15:22.841Z,146.57
2022-10-31T03:17:59.738Z,147.03
2022-10-31T03:20:35.320Z,145.83
2022-10-31T03:23:05.761Z,147.73
2022-10-31T03:25:36.298Z,147.03
2022-10-31T03:28:06.238Z,147.17
2022-10-31T03:30:36.972Z,146.90
2022-10-31T03:33:10.262Z,146.73
2022-10-31T03:35:44.457Z,147.20
2022-10-31T03:38:13.454Z,145.93
2022-10-31T03:40:45.317Z,146.33
2022-10-31T03:43:18.436Z,146.23
2022-10-31T03:45:48.717Z,146.47
2022-10-31T03:48:18.494Z,145.97
2022-10-31T03:50:57.178Z,145.67
2022-10-31T03:53:28.279Z,146.17
2022-10-31T03:56:02.776Z,147.03
2022-10-31T03:58:40.175Z,146.40
2022-10-31T04:01:11.348Z,146.53
2022-10-31T04:03:40.647Z,146.23
2022-10-31T04:06:15.740Z,146.70
2022-10-31T04:08:49.886Z,146.27
2022-10-31T04:11:23.156Z,146.37
2022-10-31T04:14:10.832Z,146.63
2022-10-31T04:16:39.347Z,146.20
2022-10-31T04:19:07.194Z,146.30
2022-10-31T04:21:36.421Z,145.77
2022-10-31T04:24:04.466Z,146.30
2022-10-31T04:26:32.351Z,146.07
2022-10-31T04:29:00.437Z,146.07
2022-10-31T04:31:29.612Z,146.40
2022-10-31T04:33:57.408Z,145.63
2022-10-31T04:36:25.218Z,145.87
2022-10-31T04:38:56.172Z,146.47
2022-10-31T04:41:37.188Z,146.37
2022-10-31T04:44:11.642Z,146.80
2022-10-31T04:46:39.422Z,145.73
2022-10-31T04:49:08.466Z,145.67
2022-10-31T04:51:36.989Z,145.77
2022-10-31T04:54:06.458Z,146.30
2022-10-31T04:56:52.665Z,146.03
2022-10-31T04:59:23.412Z,145.87
2022-10-31T05:01:55.662Z,146.63
2022-10-31T05:04:33.504Z,146.07
2022-10-31T05:07:01.338Z,146.53
2022-10-31T05:09:30.527Z,146.10
2022-10-31T05:11:58.372Z,145.87
2022-10-31T05:14:48.601Z,146.00
2022-10-31T05:17:34.998Z,146.47
2022-10-31T05:20:12.151Z,146.47
2022-10-31T05:23:04.757Z,145.87
2022-10-31T05:25:33.886Z,146.00
2022-10-31T05:28:05.162Z,145.93
2022-10-31T05:30:34.277Z,145.93
2022-10-31T05:33:03.008Z,145.80
2022-10-31T05:35:46.188Z,145.70
2022-10-31T05:38:28.474Z,145.47
2022-10-31T05:41:02.040Z,146.63
2022-10-31T05:43:32.298Z,145.53
2022-10-31T05:46:01.014Z,146.30
2022-10-31T05:48:47.495Z,145.03
2022-10-31T05:51:34.207Z,146.47
2022-10-31T05:54:02.008Z,145.47
2022-10-31T05:56:32.507Z,145.00
2022-10-31T05:59:01.217Z,145.90
2022-10-31T06:01:29.260Z,145.97
2022-10-31T06:03:59.765Z,145.47
2022-10-31T06:06:27.556Z,145.57
2022-10-31T06:08:55.601Z,145.57
2022-10-31T06:11:24.383Z,145.93
2022-10-31T06:14:05.390Z,146.03
2022-10-31T06:16:40.518Z,145.00
2022-10-31T06:19:28.410Z,145.40
2022-10-31T06:21:56.239Z,144.93
2022-10-31T06:24:24.102Z,145.07
2022-10-31T06:27:02.264Z,144.97
2022-10-31T06:29:31.539Z,144.80
2022-10-31T06:32:06.415Z,145.47
2022-10-31T06:34:39.771Z,144.57
2022-10-31T06:37:07.968Z,144.70
2022-10-31T06:39:36.389Z,144.60
2022-10-31T06:42:04.920Z,144.10
2022-10-31T06:44:34.864Z,144.83
2022-10-31T06:47:28.573Z,144.50
2022-10-31T06:50:05.340Z,145.37
2022-10-31T06:52:33.154Z,145.13
2022-10-31T06:55:00.976Z,145.20
2022-10-31T06:57:29.243Z,144.07
2022-10-31T06:59:58.702Z,144.83
2022-10-31T07:02:34.368Z,144.20
2022-10-31T07:05:02.586Z,144.93
2022-10-31T07:07:30.524Z,144.27
2022-10-31T07:09:58.490Z,144.13
2022-10-31T07:12:42.831Z,143.73
2022-10-31T07:15:12.350Z,143.10
2022-10-31T07:17:40.219Z,144.60
2022-10-31T07:20:10.734Z,144.33
2022-10-31T07:22:39.627Z,144.40
2022-10-31T07:25:10.578Z,144.20
2022-10-31T07:27:57.581Z,144.33
2022-10-31T07:30:26.961Z,144.33
2022-10-31T07:32:57.288Z,144.33
2022-10-31T07:35:30.528Z,144.40
2022-10-31T07:38:08.105Z,144.53
2022-10-31T07:40:35.903Z,144.83
2022-10-31T07:43:04.474Z,144.87
2022-10-31T07:46:08.907Z,143.53
2022-10-31T07:48:48.653Z,145.03
2022-10-31T07:51:35.121Z,144.70
2022-10-31T07:54:30.077Z,144.53
2022-10-31T07:56:57.840Z,145.13
2022-10-31T07:59:26.648Z,145.33
2022-10-31T08:01:56.999Z,144.97
2022-10-31T08:04:45.090Z,145.10
2022-10-31T08:07:38.426Z,145.50
2022-10-31T08:10:09.149Z,145.47
2022-10-31T08:12:37.000Z,145.17
2022-10-31T08:15:09.752Z,145.63
2022-10-31T08:17:40.234Z,144.80
2022-10-31T08:20:09.578Z,145.60
2022-10-31T08:22:46.584Z,145.47
2022-10-31T08:25:14.566Z,145.33
2022-10-31T08:27:42.332Z,146.73
2022-10-31T08:30:17.989Z,145.83
2022-10-31T08:33:04.481Z,145.17
2022-10-31T08:35:50.941Z,146.17
2022-10-31T08:38:37.365Z,146.40
2022-10-31T08:41:05.215Z,146.43
2022-10-31T08:43:33.094Z,145.20
2022-10-31T08:46:01.107Z,146.10
2022-10-31T08:48:32.950Z,145.53
2022-10-31T08:51:02.015Z,146.27
2022-10-31T08:53:30.871Z,145.83
2022-10-31T08:56:18.613Z,145.87
2022-10-31T08:58:47.063Z,146.17
2022-10-31T09:01:15.624Z,146.40
2022-10-31T09:03:46.645Z,146.57
2022-10-31T09:06:14.646Z,146.87
2022-10-31T09:08:42.494Z,146.33
2022-10-31T09:11:11.332Z,145.43
2022-10-31T09:13:57.868Z,146.27
2022-10-31T09:16:40.598Z,146.27
2022-10-31T09:19:16.515Z,146.53
2022-10-31T09:21:47.366Z,146.00
2022-10-31T09:24:15.250Z,147.47
2022-10-31T09:26:44.222Z,147.77
2022-10-31T09:29:18.674Z,146.37
2022-10-31T09:31:50.222Z,146.80
2022-10-31T09:34:32.981Z,146.87
2022-10-31T09:37:08.536Z,147.13
2022-10-31T09:39:37.020Z,147.10
2022-10-31T09:42:31.397Z,146.53
2022-10-31T09:45:08.963Z,146.20
2022-10-31T09:47:48.052Z,147.03
2022-10-31T09:50:54.442Z,146.80
2022-10-31T09:53:53.097Z,147.13
2022-10-31T09:56:25.212Z,147.63
2022-10-31T09:59:01.457Z,146.80
2022-10-31T10:01:41.798Z,147.03
2022-10-31T10:04:29.299Z,147.53
2022-10-31T10:07:13.175Z,147.37
2022-10-31T10:09:47.573Z,147.30
2022-10-31T10:12:50.499Z,146.93
2022-10-31T10:15:36.321Z,147.13
2022-10-31T10:18:11.264Z,146.97
2022-10-31T10:20:45.923Z,147.80
2022-10-31T10:23:30.684Z,147.70
2022-10-31T10:26:10.965Z,146.67
2022-10-31T10:28:43.606Z,146.73
2022-10-31T10:31:16.291Z,147.57
2022-10-31T10:33:49.382Z,147.90
2022-10-31T10:36:23.456Z,147.23
2022-10-31T10:38:55.700Z,147.27
2022-10-31T10:41:25.690Z,148.03
2022-10-31T10:43:55.055Z,147.40
2022-10-31T10:46:49.064Z,147.37
2022-10-31T10:49:19.357Z,147.47
2022-10-31T10:55:01.055Z,147.40
2022-10-31T10:57:39.129Z,146.77
2022-10-31T11:00:19.164Z,147.37
2022-10-31T11:02:49.012Z,147.30
2022-10-31T11:05:25.124Z,147.53
2022-10-31T11:07:53.081Z,147.43
2022-10-31T11:10:22.253Z,147.60
2022-10-31T11:13:03.664Z,147.67
2022-10-31T11:15:35.573Z,148.03
2022-10-31T11:18:03.649Z,146.73
2022-10-31T11:20:35.442Z,147.73
2022-10-31T11:23:07.261Z,147.40
2022-10-31T11:25:37.000Z,146.73
2022-10-31T11:28:06.974Z,146.80
2022-10-31T11:30:44.107Z,147.80
2022-10-31T11:33:19.453Z,147.57
2022-10-31T11:35:50.934Z,147.70
2022-10-31T11:38:25.019Z,147.60
2022-10-31T11:40:56.914Z,147.00
2022-10-31T11:43:25.491Z,147.93
2022-10-31T11:45:53.479Z,147.43
2022-10-31T11:48:24.530Z,148.13
2022-10-31T11:50:56.456Z,147.50
2022-10-31T11:53:29.131Z,147.73
2022-10-31T11:56:15.038Z,147.77
2022-10-31T11:58:44.207Z,147.53
2022-10-31T12:01:26.219Z,147.77
2022-10-31T12:04:02.002Z,148.00
2022-10-31T12:06:35.226Z,147.87
2022-10-31T12:09:03.047Z,147.13
2022-10-31T12:11:44.965Z,147.40
2022-10-31T12:14:24.130Z,147.97
2022-10-31T12:16:58.722Z,148.27
2022-10-31T12:19:36.864Z,147.80
2022-10-31T12:22:12.197Z,147.20
2022-10-31T12:25:19.523Z,147.73
2022-10-31T12:28:02.701Z,147.20
2022-10-31T12:30:38.000Z,147.17
2022-10-31T12:33:20.049Z,147.47
2022-10-31T12:36:00.533Z,147.93
2022-10-31T12:38:53.998Z,147.87
2022-10-31T12:41:34.844Z,147.53
2022-10-31T12:44:08.154Z,147.87
2022-10-31T12:46:59.055Z,147.90
2022-10-31T12:49:44.390Z,147.70
2022-10-31T12:52:28.539Z,147.57
2022-10-31T12:55:11.333Z,148.07
2022-10-31T12:57:43.718Z,147.70
2022-10-31T13:00:17.758Z,147.33
2022-10-31T13:02:52.589Z,147.33
2022-10-31T13:05:28.488Z,146.97
2022-10-31T13:07:59.736Z,147.73
2022-10-31T13:10:32.281Z,146.97
2022-10-31T13:13:06.498Z,147.60
2022-10-31T13:15:47.127Z,147.77
2022-10-31T13:18:23.316Z,147.20
2022-10-31T13:20:55.521Z,147.77
2022-10-31T13:23:49.924Z,148.50
2022-10-31T13:26:24.006Z,147.50
2022-10-31T13:28:58.078Z,147.97
2022-10-31T13:31:27.539Z,147.57
2022-10-31T13:33:59.301Z,147.80
2022-10-31T13:36:35.219Z,146.83
2022-10-31T13:39:25.260Z,147.07
2022-10-31T13:41:59.213Z,147.83
2022-10-31T13:44:28.718Z,147.43
2022-10-31T13:46:59.265Z,147.90
2022-10-31T13:49:39.518Z,147.77
2022-10-31T13:52:15.366Z,147.43
2022-10-31T13:54:44.957Z,147.00
2022-10-31T13:57:20.041Z,147.87
2022-10-31T13:59:54.851Z,146.70
2022-10-31T14:02:28.791Z,147.67
2022-10-31T14:05:00.394Z,147.47
2022-10-31T14:07:30.220Z,147.77
2022-10-31T14:10:01.329Z,147.57
2022-10-31T14:12:35.254Z,148.13
2022-10-31T14:15:14.436Z,147.33
2022-10-31T14:17:51.753Z,147.90
2022-10-31T14:20:34.438Z,147.60
2022-10-31T14:23:14.061Z,147.73
2022-10-31T14:25:42.502Z,147.33
2022-10-31T14:28:24.287Z,147.63
2022-10-31T14:30:57.542Z,147.60
2022-10-31T14:33:29.958Z,147.73
2022-10-31T14:36:02.661Z,147.97
2022-10-31T14:38:56.849Z,148.00
2022-10-31T14:41:38.676Z,147.93
2022-10-31T14:44:43.335Z,147.93
2022-10-31T14:47:20.771Z,148.00
2022-10-31T14:50:16.209Z,147.60
2022-10-31T14:52:50.041Z,146.87
2022-10-31T14:55:19.517Z,148.17
2022-10-31T14:57:53.103Z,148.27
2022-10-31T15:00:22.690Z,147.70
2022-10-31T15:03:04.983Z,147.03
2022-10-31T15:05:36.495Z,147.40
2022-10-31T15:08:04.570Z,147.73
2022-10-31T15:10:35.762Z,147.37
2022-10-31T15:13:19.010Z,147.37
2022-10-31T15:15:51.294Z,147.33
2022-10-31T15:18:23.158Z,147.63
2022-10-31T15:20:54.322Z,147.50
2022-10-31T15:23:25.953Z,147.70
2022-10-31T15:26:00.569Z,148.23
2022-10-31T15:28:28.981Z,148.07
2022-10-31T15:30:59.150Z,147.77
2022-10-31T15:33:33.681Z,147.20
2022-10-31T15:36:07.778Z,147.27
2022-10-31T15:38:35.698Z,147.37
2022-10-31T15:41:06.206Z,147.90
2022-10-31T15:43:37.682Z,147.30
2022-10-31T15:46:09.637Z,147.63
2022-10-31T15:48:37.858Z,148.07
2022-10-31T15:51:07.859Z,147.57
2022-10-31T15:53:39.974Z,147.40
2022-10-31T15:56:10.268Z,147.33
2022-10-31T15:58:44.594Z,147.17
2022-10-31T16:01:23.659Z,147.77
2022-10-31T16:04:03.849Z,146.77
2022-10-31T16:06:34.887Z,147.47
2022-10-31T16:09:03.282Z,148.03
2022-10-31T16:11:36.189Z,147.50
2022-10-31T16:14:08.130Z,147.43
2022-10-31T16:16:42.598Z,147.73
2022-10-31T16:19:19.853Z,147.43
2022-10-31T16:21:50.795Z,147.23
2022-10-31T16:24:22.512Z,147.03
2022-10-31T16:26:51.427Z,147.40
2022-10-31T16:29:30.872Z,147.67
2022-10-31T16:31:58.667Z,147.27
2022-10-31T16:34:27.278Z,147.47
2022-10-31T16:36:56.488Z,147.23
2022-10-31T16:39:24.314Z,146.67
2022-10-31T16:41:54.068Z,147.80
2022-10-31T16:44:24.451Z,147.37
2022-10-31T16:47:09.931Z,146.73
2022-10-31T16:49:38.330Z,146.63
2022-10-31T16:52:07.567Z,147.53
2022-10-31T16:54:35.377Z,146.83
2022-10-31T16:57:05.533Z,146.87
2022-10-31T16:59:34.571Z,147.17
2022-10-31T17:02:05.020Z,147.30
2022-10-31T17:04:32.983Z,146.87
2022-10-31T17:07:00.772Z,146.63
2022-10-31T17:09:29.925Z,147.40
2022-10-31T17:11:58.716Z,147.83
2022-10-31T17:14:26.811Z,147.60
2022-10-31T17:17:01.810Z,147.33
2022-10-31T17:19:29.660Z,146.77
2022-10-31T17:21:57.557Z,146.57
2022-10-31T17:24:25.350Z,146.33
2022-10-31T17:26:54.459Z,147.27
2022-10-31T17:29:22.278Z,146.87
2022-10-31T17:31:50.055Z,146.87
2022-10-31T17:34:19.215Z,147.27
2022-10-31T17:36:51.623Z,147.50
2022-10-31T17:39:19.958Z,146.57
2022-10-31T17:41:50.842Z,147.00
2022-10-31T17:44:20.674Z,147.83
2022-10-31T17:46:48.500Z,147.00
2022-10-31T17:49:16.521Z,146.63
2022-10-31T17:51:44.284Z,146.63
2022-10-31T17:54:12.116Z,147.23
2022-10-31T17:56:39.903Z,146.73
2022-10-31T17:59:07.716Z,147.63
2022-10-31T18:01:36.888Z,147.23
2022-10-31T18:04:04.857Z,147.90
2022-10-31T18:06:32.634Z,148.17
2022-10-31T18:09:04.495Z,147.30
2022-10-31T18:11:32.817Z,146.63
2022-10-31T18:14:01.333Z,146.40
2022-10-31T18:16:29.155Z,146.40
2022-10-31T18:19:01.709Z,146.60
2022-10-31T18:21:29.669Z,147.37
2022-10-31T18:23:58.682Z,146.50
2022-10-31T18:26:28.083Z,147.37
2022-10-31T18:28:56.480Z,147.57
2022-10-31T18:31:24.515Z,146.53
2022-10-31T18:33:54.310Z,146.93
2022-10-31T18:36:23.809Z,147.53
2022-10-31T18:38:51.628Z,146.50
2022-10-31T18:41:19.546Z,147.47
2022-10-31T18:43:47.328Z,147.43
2022-10-31T18:46:17.002Z,146.73
2022-10-31T18:48:46.333Z,146.20
2022-10-31T18:51:15.792Z,146.57
2022-10-31T18:53:50.321Z,147.27
2022-10-31T18:56:18.077Z,146.60
2022-10-31T18:58:45.934Z,146.97
2022-10-31T19:01:14.948Z,146.87
2022-10-31T19:03:42.842Z,146.57
2022-10-31T19:06:11.614Z,146.57
2022-10-31T19:08:40.604Z,147.80
2022-10-31T19:11:11.637Z,146.70
2022-10-31T19:13:40.105Z,147.03
2022-10-31T19:16:10.536Z,147.30
2022-10-31T19:18:38.796Z,147.63
2022-10-31T19:21:07.492Z,147.63
2022-10-31T19:23:35.578Z,146.97
2022-10-31T19:26:03.466Z,146.90
2022-10-31T19:28:33.676Z,146.77
2022-10-31T19:31:01.737Z,147.47
2022-10-31T19:33:34.889Z,147.00
2022-10-31T19:36:08.119Z,146.97
2022-10-31T19:38:36.632Z,146.30
2022-10-31T19:41:08.128Z,146.57
2022-10-31T19:43:37.292Z,147.03
2022-10-31T19:46:06.242Z,147.43
2022-10-31T19:48:36.910Z,147.43
2022-10-31T19:51:07.297Z,146.80
2022-10-31T19:53:35.606Z,147.10
2022-10-31T19:56:04.059Z,146.63
2022-10-31T19:58:33.501Z,146.60
2022-10-31T20:01:08.020Z,146.57
2022-10-31T20:03:35.861Z,146.83
2022-10-31T20:06:04.423Z,147.20
2022-10-31T20:08:37.027Z,146.80
2022-10-31T20:11:07.089Z,147.73
2022-10-31T20:13:35.122Z,146.67
2022-10-31T20:16:07.374Z,147.33
2022-10-31T20:18:35.652Z,147.13
2022-10-31T20:21:05.117Z,147.13
2022-10-31T20:23:33.171Z,147.00
2022-10-31T20:26:01.556Z,147.17
2022-10-31T20:28:31.021Z,147.27
2022-10-31T20:30:58.966Z,146.83
2022-10-31T20:33:28.537Z,147.03
2022-10-31T20:35:56.322Z,146.17
2022-10-31T20:38:24.102Z,146.90
2022-10-31T20:40:51.901Z,146.90
2022-10-31T20:43:19.670Z,146.77
2022-10-31T20:45:47.473Z,147.27
2022-10-31T20:48:15.270Z,147.07
2022-10-31T20:50:44.451Z,147.43
2022-10-31T20:53:13.667Z,146.90
2022-10-31T20:55:41.458Z,146.83
2022-10-31T20:58:09.270Z,146.63
2022-10-31T21:00:37.983Z,146.17
2022-10-31T21:03:05.753Z,147.40
2022-10-31T21:05:33.550Z,146.83
2022-10-31T21:08:02.925Z,146.97
2022-10-31T21:10:30.713Z,147.20
2022-10-31T21:12:58.725Z,147.27
2022-10-31T21:15:26.715Z,146.70
2022-10-31T21:17:55.581Z,146.83
2022-10-31T21:20:23.551Z,146.90
2022-10-31T21:22:51.368Z,146.83
2022-10-31T21:25:20.505Z,147.37
2022-10-31T21:27:48.440Z,147.37
2022-10-31T21:30:16.486Z,147.83
2022-10-31T21:32:44.267Z,147.00
2022-10-31T21:35:12.040Z,146.60
2022-10-31T21:37:39.802Z,146.80
2022-10-31T21:40:08.882Z,147.57
2022-10-31T21:42:37.993Z,147.00
2022-10-31T21:45:06.357Z,147.10
2022-10-31T21:47:34.113Z,146.57
2022-10-31T21:50:01.918Z,147.10
2022-10-31T21:52:29.689Z,147.13
2022-10-31T21:54:56.486Z,147.33
2022-10-31T21:57:24.292Z,147.13
2022-10-31T21:59:53.413Z,146.43
2022-10-31T22:02:21.204Z,146.77
2022-10-31T22:04:50.867Z,146.60
2022-10-31T22:07:19.024Z,146.93
2022-10-31T22:09:47.301Z,147.00
2022-10-31T22:12:15.641Z,146.90
2022-10-31T22:14:43.674Z,146.57
2022-10-31T22:17:12.774Z,146.40
2022-10-31T22:19:40.680Z,145.37
2022-10-31T22:22:08.476Z,146.03
2022-10-31T22:24:36.281Z,146.70
2022-10-31T22:27:04.053Z,146.70
2022-10-31T22:29:31.852Z,146.43
2022-10-31T22:32:01.625Z,146.27
2022-10-31T22:34:31.186Z,147.17
2022-10-31T22:36:58.942Z,145.77
2022-10-31T22:39:26.798Z,146.70
2022-10-31T22:41:54.577Z,145.80
2022-10-31T22:44:22.378Z,146.47
2022-10-31T22:46:50.154Z,146.00
2022-10-31T22:49:17.942Z,147.43
2022-10-31T22:51:47.074Z,146.83
2022-10-31T22:54:16.633Z,146.80
2022-10-31T22:56:45.114Z,146.67
2022-10-31T22:59:14.668Z,146.30
2022-10-31T23:01:44.674Z,147.20
2022-10-31T23:04:13.288Z,145.60
2022-10-31T23:06:41.284Z,146.43
2022-10-31T23:09:11.987Z,146.97
2022-10-31T23:11:40.543Z,146.13
2022-10-31T23:14:10.303Z,146.47
2022-10-31T23:16:42.375Z,146.20
2022-10-31T23:19:12.027Z,146.53
2022-10-31T23:21:54.457Z,146.47
2022-10-31T23:24:29.927Z,146.30
2022-10-31T23:27:07.680Z,146.67
2022-10-31T23:29:38.045Z,146.03
2022-10-31T23:32:07.220Z,146.87
2022-10-31T23:34:35.108Z,146.37
2022-10-31T23:37:02.912Z,147.07
2022-10-31T23:39:32.081Z,146.63
2022-10-31T23:41:59.893Z,147.17
2022-10-31T23:44:27.685Z,147.10
2022-10-31T23:46:55.477Z,146.70
2022-10-31T23:49:23.264Z,145.73
2022-10-31T23:51:51.091Z,146.50
2022-10-31T23:54:18.955Z,146.77
2022-10-31T23:56:48.078Z,145.87
2022-10-31T23:59:15.951Z,146.27
